createdAt,value
2022-12-23T00:02:25.754Z,139.65
2022-12-23T00:04:53.367Z,129.98
2022-12-23T00:07:21.074Z,121.88
2022-12-23T00:09:48.582Z,101.53
2022-12-23T00:12:35.012Z,104.97
2022-12-23T00:15:05.465Z,127.75
2022-12-23T00:17:45.373Z,139.23
2022-12-23T00:20:15.083Z,166.30
2022-12-23T00:23:01.105Z,132.18
2022-12-23T00:25:40.793Z,137.73
2022-12-23T00:28:20.096Z,171.05
2022-12-23T00:30:50.455Z,191.90
2022-12-23T00:33:20.686Z,240.63
2022-12-23T00:35:49.189Z,162.88
2022-12-23T00:38:38.589Z,182.38
2022-12-23T00:41:34.086Z,127.47
2022-12-23T00:44:03.121Z,151.70
2022-12-23T00:46:31.693Z,198.73
2022-12-23T00:49:18.277Z,142.02
2022-12-23T00:51:45.925Z,149.48
2022-12-23T00:54:13.563Z,200.75
2022-12-23T00:56:41.184Z,175.43
2022-12-23T00:59:08.727Z,226.27
2022-12-23T01:01:55.221Z,142.68
2022-12-23T01:04:42.752Z,151.80
2022-12-23T01:07:10.711Z,169.55
2022-12-23T01:09:38.375Z,180.13
2022-12-23T01:12:06.282Z,243.23
2022-12-23T01:14:33.958Z,233.10
2022-12-23T01:17:02.031Z,211.10
2022-12-23T01:19:30.039Z,280.30
2022-12-23T01:21:57.811Z,115.88
2022-12-23T01:24:31.840Z,208.75
2022-12-23T01:27:00.303Z,135.82
2022-12-23T01:29:28.981Z,179.32
2022-12-23T01:31:56.698Z,148.65
2022-12-23T01:34:24.427Z,153.23
2022-12-23T01:36:51.999Z,263.00
2022-12-23T01:39:19.593Z,165.93
2022-12-23T01:42:05.947Z,181.68
2022-12-23T01:44:54.608Z,230.13
2022-12-23T01:47:37.184Z,244.05
2022-12-23T01:50:25.558Z,235.90
2022-12-23T01:53:15.016Z,359.65
2022-12-23T01:55:54.433Z,167.57
2022-12-23T01:58:33.453Z,190.80
2022-12-23T02:01:19.950Z,264.33
2022-12-23T02:03:49.590Z,199.48
2022-12-23T02:06:46.150Z,207.60
2022-12-23T02:09:20.526Z,192.60
2022-12-23T02:12:07.167Z,126.72
2022-12-23T02:15:12.019Z,144.05
2022-12-23T02:18:10.358Z,141.95
2022-12-23T02:20:53.109Z,127.28
2022-12-23T02:23:58.154Z,122.70
2022-12-23T02:26:47.512Z,124.28
2022-12-23T02:29:59.459Z,156.73
2022-12-23T02:32:39.873Z,158.57
2022-12-23T02:35:37.970Z,166.32
2022-12-23T02:38:17.187Z,158.55
2022-12-23T02:41:10.770Z,160.30
2022-12-23T02:43:51.489Z,123.50
2022-12-23T02:46:36.423Z,124.90
2022-12-23T02:49:10.983Z,164.50
2022-12-23T02:51:43.408Z,188.25
2022-12-23T02:54:15.596Z,131.55
2022-12-23T02:56:46.954Z,165.02
2022-12-23T02:59:20.758Z,213.45
2022-12-23T03:01:49.785Z,136.18
2022-12-23T03:04:17.614Z,136.52
2022-12-23T03:06:48.571Z,139.52
2022-12-23T03:09:43.226Z,126.72
2022-12-23T03:12:43.227Z,122.65
2022-12-23T03:17:46.154Z,106.85
2022-12-23T03:20:26.921Z,108.47
2022-12-23T03:23:36.528Z,92.47
2022-12-23T03:26:10.876Z,94.13
2022-12-23T03:28:45.501Z,88.95
2022-12-23T03:31:18.459Z,95.90
2022-12-23T03:33:53.358Z,97.78
2022-12-23T03:36:25.276Z,96.25
2022-12-23T03:38:55.740Z,100.70
2022-12-23T03:41:35.811Z,90.80
2022-12-23T03:44:10.166Z,112.75
2022-12-23T03:46:46.663Z,97.57
2022-12-23T03:49:24.262Z,128.75
2022-12-23T03:52:02.890Z,112.50
2022-12-23T03:54:41.042Z,82.95
2022-12-23T03:57:10.355Z,98.22
2022-12-23T03:59:42.551Z,103.50
2022-12-23T04:02:16.119Z,80.78
2022-12-23T04:04:46.702Z,89.10
2022-12-23T04:07:21.357Z,82.65
2022-12-23T04:09:52.383Z,90.68
2022-12-23T04:12:23.870Z,81.15
2022-12-23T04:14:52.500Z,98.07
2022-12-23T04:17:20.440Z,85.75
2022-12-23T04:19:48.158Z,99.88
2022-12-23T04:22:16.411Z,81.65
2022-12-23T04:24:44.353Z,115.65
2022-12-23T04:27:14.058Z,85.70
2022-12-23T04:29:42.739Z,76.35
2022-12-23T04:32:10.876Z,80.35
2022-12-23T04:34:39.886Z,84.22
2022-12-23T04:37:11.053Z,81.57
2022-12-23T04:39:38.737Z,95.72
2022-12-23T04:42:06.296Z,89.60
2022-12-23T04:44:33.994Z,91.35
2022-12-23T04:47:01.580Z,94.53
2022-12-23T04:49:30.285Z,102.35
2022-12-23T04:51:58.077Z,104.00
2022-12-23T04:54:25.813Z,106.18
2022-12-23T04:56:53.392Z,104.63
2022-12-23T04:59:20.991Z,110.72
2022-12-23T05:01:48.769Z,109.85
2022-12-23T05:04:16.584Z,95.97
2022-12-23T05:06:44.317Z,90.15
2022-12-23T05:09:11.944Z,101.40
2022-12-23T05:11:42.296Z,103.97
2022-12-23T05:14:11.632Z,103.25
2022-12-23T05:16:39.679Z,112.30
2022-12-23T05:19:07.333Z,112.28
2022-12-23T05:21:34.873Z,110.22
2022-12-23T05:24:02.571Z,99.32
2022-12-23T05:26:30.207Z,84.55
2022-12-23T05:28:57.821Z,103.68
2022-12-23T05:31:25.452Z,97.50
2022-12-23T05:33:53.213Z,99.60
2022-12-23T05:36:20.945Z,96.22
2022-12-23T05:38:48.547Z,91.63
2022-12-23T05:41:17.017Z,87.15
2022-12-23T05:43:44.625Z,87.53
2022-12-23T05:46:12.250Z,92.60
2022-12-23T05:48:39.861Z,69.30
2022-12-23T05:51:07.480Z,79.25
2022-12-23T05:53:35.147Z,64.88
2022-12-23T05:56:06.525Z,59.97
2022-12-23T05:58:34.206Z,66.20
2022-12-23T06:01:03.155Z,73.80
2022-12-23T06:03:30.920Z,71.30
2022-12-23T06:05:58.675Z,55.88
2022-12-23T06:08:27.169Z,61.35
2022-12-23T06:10:54.760Z,56.38
2022-12-23T06:13:22.438Z,61.35
2022-12-23T06:15:50.032Z,57.80
2022-12-23T06:18:17.911Z,63.65
2022-12-23T06:20:47.620Z,58.03
2022-12-23T06:23:15.507Z,74.85
2022-12-23T06:25:43.137Z,70.53
2022-12-23T06:28:11.141Z,61.28
2022-12-23T06:30:38.700Z,67.95
2022-12-23T06:33:06.297Z,63.78
2022-12-23T06:35:33.826Z,61.90
2022-12-23T06:38:01.474Z,67.35
2022-12-23T06:40:29.747Z,64.40
2022-12-23T06:42:57.392Z,67.25
2022-12-23T06:45:24.990Z,69.10
2022-12-23T06:47:52.572Z,62.42
2022-12-23T06:50:20.731Z,61.88
2022-12-23T06:52:49.171Z,56.17
2022-12-23T06:55:16.871Z,63.30
2022-12-23T06:57:45.086Z,55.70
2022-12-23T07:00:13.466Z,58.65
2022-12-23T07:02:41.121Z,57.28
2022-12-23T07:05:09.311Z,49.97
2022-12-23T07:07:37.038Z,54.35
2022-12-23T07:10:05.372Z,41.13
2022-12-23T07:12:33.166Z,54.17
2022-12-23T07:15:00.673Z,40.97
2022-12-23T07:17:28.378Z,48.50
2022-12-23T07:19:55.979Z,43.45
2022-12-23T07:22:23.662Z,48.17
2022-12-23T07:24:51.253Z,49.40
2022-12-23T07:27:18.936Z,44.20
2022-12-23T07:29:46.645Z,44.35
2022-12-23T07:32:14.476Z,46.45
2022-12-23T07:34:41.987Z,43.97
2022-12-23T07:37:09.630Z,41.83
2022-12-23T07:39:37.318Z,42.58
2022-12-23T07:42:25.470Z,45.58
2022-12-23T07:44:52.533Z,43.53
2022-12-23T07:47:20.098Z,46.28
2022-12-23T07:49:47.686Z,36.83
2022-12-23T07:52:15.681Z,42.47
2022-12-23T07:54:43.272Z,43.75
2022-12-23T07:57:10.938Z,41.85
2022-12-23T07:59:38.577Z,47.03
2022-12-23T08:02:06.785Z,36.53
2022-12-23T08:04:34.793Z,40.85
2022-12-23T08:07:02.944Z,42.90
2022-12-23T08:09:30.591Z,47.65
2022-12-23T08:11:58.244Z,45.45
2022-12-23T08:14:25.798Z,50.13
2022-12-23T08:16:53.367Z,54.05
2022-12-23T08:19:21.012Z,38.25
2022-12-23T08:21:48.816Z,46.03
2022-12-23T08:24:16.545Z,46.70
2022-12-23T08:26:44.118Z,39.72
2022-12-23T08:29:11.771Z,53.45
2022-12-23T08:31:39.420Z,50.33
2022-12-23T08:34:06.955Z,49.67
2022-12-23T08:36:35.884Z,54.92
2022-12-23T08:39:10.411Z,41.90
2022-12-23T08:41:44.535Z,49.80
2022-12-23T08:44:12.902Z,46.53
2022-12-23T08:46:41.552Z,45.97
2022-12-23T08:49:09.620Z,55.17
2022-12-23T08:51:38.000Z,48.63
2022-12-23T08:54:06.043Z,45.70
2022-12-23T08:56:36.025Z,43.72
2022-12-23T08:59:04.351Z,40.50
2022-12-23T09:01:34.332Z,43.63
2022-12-23T09:04:04.764Z,40.88
2022-12-23T09:06:36.003Z,43.13
2022-12-23T09:09:04.982Z,37.40
2022-12-23T09:11:33.566Z,39.40
2022-12-23T09:14:02.479Z,38.22
2022-12-23T09:16:30.393Z,33.67
2022-12-23T09:18:58.371Z,30.38
2022-12-23T09:21:26.242Z,40.65
2022-12-23T09:23:53.930Z,29.17
2022-12-23T09:26:27.522Z,30.58
2022-12-23T09:28:56.297Z,24.45
2022-12-23T09:31:29.064Z,34.55
2022-12-23T09:34:00.176Z,31.40
2022-12-23T09:36:27.725Z,32.67
2022-12-23T09:38:56.585Z,31.10
2022-12-23T09:42:01.466Z,29.92
2022-12-23T09:45:02.100Z,26.10
2022-12-23T09:47:31.893Z,24.13
2022-12-23T09:50:03.537Z,25.73
2022-12-23T09:52:49.663Z,27.85
2022-12-23T09:55:18.508Z,21.98
2022-12-23T09:58:01.098Z,22.42
2022-12-23T10:00:38.979Z,23.50
2022-12-23T10:03:34.372Z,22.65
2022-12-23T10:06:19.000Z,21.98
2022-12-23T10:08:49.185Z,18.60
2022-12-23T10:11:25.680Z,17.48
2022-12-23T10:14:01.203Z,21.33
2022-12-23T10:16:41.406Z,17.30
2022-12-23T10:19:20.846Z,18.23
2022-12-23T10:21:51.842Z,17.27
2022-12-23T10:24:28.171Z,15.85
2022-12-23T10:26:57.148Z,15.55
2022-12-23T10:29:30.237Z,14.60
2022-12-23T10:32:22.011Z,16.67
2022-12-23T10:35:06.338Z,15.82
2022-12-23T10:37:57.552Z,16.35
2022-12-23T10:40:52.773Z,12.70
2022-12-23T10:43:30.572Z,14.25
2022-12-23T10:46:37.117Z,14.90
2022-12-23T10:49:35.859Z,17.40
2022-12-23T10:52:14.579Z,14.90
2022-12-23T10:54:44.188Z,13.23
2022-12-23T10:57:15.199Z,16.23
2022-12-23T10:59:43.848Z,13.05
2022-12-23T11:02:14.524Z,16.48
2022-12-23T11:04:49.747Z,13.82
2022-12-23T11:07:44.092Z,18.13
2022-12-23T11:10:21.876Z,17.73
2022-12-23T11:12:52.677Z,12.73
2022-12-23T11:15:29.378Z,13.57
2022-12-23T11:18:06.128Z,12.52
2022-12-23T11:20:35.893Z,10.68
2022-12-23T11:23:05.740Z,11.55
2022-12-23T11:25:40.542Z,11.57
2022-12-23T11:28:15.874Z,11.65
2022-12-23T11:30:55.163Z,5.28
2022-12-23T11:33:38.681Z,10.65
2022-12-23T11:36:23.911Z,6.30
2022-12-23T11:39:32.893Z,7.88
2022-12-23T11:42:17.131Z,21.77
2022-12-23T11:44:46.099Z,15.05
2022-12-23T11:47:22.852Z,8.23
2022-12-23T11:49:53.626Z,6.07
2022-12-23T11:52:23.453Z,4.40
2022-12-23T11:54:56.522Z,6.20
2022-12-23T11:57:40.142Z,4.22
2022-12-23T12:00:21.043Z,4.20
2022-12-23T12:03:02.099Z,4.07
2022-12-23T12:05:38.047Z,3.63
2022-12-23T12:08:20.205Z,5.18
2022-12-23T12:10:52.247Z,5.13
2022-12-23T12:13:28.901Z,3.28
2022-12-23T12:16:15.116Z,4.30
2022-12-23T12:18:48.018Z,3.95
2022-12-23T12:21:24.924Z,3.80
2022-12-23T12:24:17.336Z,3.63
2022-12-23T12:26:51.153Z,3.53
2022-12-23T12:29:27.537Z,4.13
2022-12-23T12:31:59.049Z,4.25
2022-12-23T12:34:53.761Z,3.75
2022-12-23T12:37:39.731Z,3.45
2022-12-23T12:40:35.240Z,3.90
2022-12-23T12:43:24.705Z,4.38
2022-12-23T12:46:26.216Z,4.63
2022-12-23T12:48:56.047Z,7.35
2022-12-23T12:51:45.579Z,4.72
2022-12-23T12:54:32.250Z,5.03
2022-12-23T12:57:02.308Z,3.63
2022-12-23T13:02:23.451Z,6.38
2022-12-23T13:05:28.324Z,4.85
2022-12-23T13:08:13.821Z,3.83
2022-12-23T13:11:12.237Z,6.57
2022-12-23T13:13:42.891Z,3.45
2022-12-23T13:16:28.960Z,4.22
2022-12-23T13:19:21.892Z,5.47
2022-12-23T13:22:05.365Z,4.65
2022-12-23T13:25:01.869Z,4.28
2022-12-23T13:27:33.879Z,4.75
2022-12-23T13:30:06.028Z,6.28
2022-12-23T13:32:44.450Z,4.63
2022-12-23T13:35:37.045Z,7.43
2022-12-23T13:38:41.682Z,7.50
2022-12-23T13:41:40.984Z,5.22
2022-12-23T13:46:52.077Z,5.85
2022-12-23T13:49:45.329Z,9.27
2022-12-23T13:52:23.024Z,8.43
2022-12-23T13:54:56.707Z,7.28
2022-12-23T13:57:46.143Z,6.43
2022-12-23T14:00:19.668Z,6.78
2022-12-23T14:02:52.911Z,7.95
2022-12-23T14:05:50.887Z,9.60
2022-12-23T14:08:18.541Z,7.55
2022-12-23T14:11:15.890Z,11.55
2022-12-23T14:13:51.808Z,7.05
2022-12-23T14:16:54.564Z,6.68
2022-12-23T14:19:31.119Z,4.93
2022-12-23T14:22:23.071Z,5.78
2022-12-23T14:25:17.107Z,8.10
2022-12-23T14:28:08.735Z,5.20
2022-12-23T14:30:42.893Z,4.53
2022-12-23T14:33:16.683Z,4.72
2022-12-23T14:35:44.254Z,4.88
2022-12-23T14:38:14.847Z,5.32
2022-12-23T14:40:42.419Z,8.18
2022-12-23T14:43:22.086Z,8.88
2022-12-23T14:45:53.515Z,5.72
2022-12-23T14:48:37.173Z,5.93
2022-12-23T14:51:14.022Z,5.28
2022-12-23T14:54:00.311Z,6.80
2022-12-23T14:56:40.382Z,6.18
2022-12-23T14:59:33.429Z,5.07
2022-12-23T15:02:23.689Z,6.10
2022-12-23T15:04:56.657Z,7.13
2022-12-23T15:07:43.624Z,4.95
2022-12-23T15:10:23.102Z,9.63
2022-12-23T15:12:55.255Z,5.90
2022-12-23T15:15:26.184Z,6.32
2022-12-23T15:18:14.033Z,6.10
2022-12-23T15:20:41.806Z,7.72
2022-12-23T15:23:11.836Z,7.00
2022-12-23T15:28:18.784Z,7.75
2022-12-23T15:30:56.750Z,7.85
2022-12-23T15:36:36.943Z,8.98
2022-12-23T15:39:16.948Z,6.78
2022-12-23T15:41:45.718Z,7.45
2022-12-23T15:44:18.215Z,8.60
2022-12-23T15:46:46.235Z,7.13
2022-12-23T15:49:13.987Z,7.18
2022-12-23T15:52:07.232Z,10.02
2022-12-23T15:54:42.756Z,12.43
2022-12-23T15:57:17.783Z,12.88
2022-12-23T15:59:45.679Z,9.52
2022-12-23T16:05:28.869Z,9.70
2022-12-23T16:08:16.413Z,8.32
2022-12-23T16:10:58.560Z,8.27
2022-12-23T16:13:26.947Z,7.72
2022-12-23T16:15:55.162Z,9.07
2022-12-23T16:18:25.831Z,6.20
2022-12-23T16:21:05.862Z,7.15
2022-12-23T16:23:36.518Z,8.25
2022-12-23T16:26:04.677Z,6.78
2022-12-23T16:28:40.332Z,11.68
2022-12-23T16:31:09.573Z,9.32
2022-12-23T16:33:55.136Z,11.48
2022-12-23T16:36:34.007Z,8.30
2022-12-23T16:39:07.523Z,8.52
2022-12-23T16:41:36.140Z,12.68
2022-12-23T16:44:04.980Z,9.63
2022-12-23T16:46:36.209Z,10.40
2022-12-23T16:49:08.402Z,12.93
2022-12-23T16:51:38.381Z,10.63
2022-12-23T16:56:38.084Z,13.88
2022-12-23T16:59:05.801Z,15.77
2022-12-23T17:01:37.095Z,13.05
2022-12-23T17:04:06.367Z,13.23
2022-12-23T17:06:35.861Z,14.53
2022-12-23T17:09:04.725Z,14.90
2022-12-23T17:11:48.151Z,18.90
2022-12-23T17:14:25.904Z,14.32
2022-12-23T17:16:53.716Z,15.23
2022-12-23T17:19:28.043Z,15.27
2022-12-23T17:22:02.359Z,13.75
2022-12-23T17:24:30.160Z,18.40
2022-12-23T17:26:57.908Z,22.45
2022-12-23T17:29:25.793Z,31.20
2022-12-23T17:31:53.532Z,10.13
2022-12-23T17:34:22.722Z,14.05
2022-12-23T17:36:51.335Z,10.50
2022-12-23T17:39:20.174Z,15.30
2022-12-23T17:41:48.526Z,9.05
2022-12-23T17:44:17.661Z,12.38
2022-12-23T17:46:46.414Z,6.53
2022-12-23T17:49:14.279Z,10.68
2022-12-23T17:51:42.807Z,18.65
2022-12-23T17:54:25.070Z,13.48
2022-12-23T17:56:52.779Z,10.65
2022-12-23T17:59:21.487Z,12.27
2022-12-23T18:01:49.390Z,16.30
2022-12-23T18:04:17.045Z,16.23
2022-12-23T18:06:44.612Z,13.23
2022-12-23T18:09:12.106Z,15.50
2022-12-23T18:11:44.133Z,16.98
2022-12-23T18:14:18.066Z,21.00
2022-12-23T18:16:46.422Z,16.92
2022-12-23T18:19:19.258Z,17.13
2022-12-23T18:21:47.367Z,17.45
2022-12-23T18:24:15.048Z,12.70
2022-12-23T18:26:43.053Z,18.58
2022-12-23T18:29:10.601Z,20.70
2022-12-23T18:31:50.534Z,20.83
2022-12-23T18:34:20.485Z,19.23
2022-12-23T18:36:48.481Z,15.32
2022-12-23T18:39:16.925Z,18.13
2022-12-23T18:41:44.486Z,9.15
2022-12-23T18:44:19.324Z,18.65
2022-12-23T18:46:47.968Z,18.23
2022-12-23T18:49:17.034Z,24.20
2022-12-23T18:51:45.142Z,22.27
2022-12-23T18:54:16.391Z,16.23
2022-12-23T18:56:44.670Z,15.63
2022-12-23T18:59:29.569Z,20.90
2022-12-23T19:01:58.337Z,19.70
2022-12-23T19:04:30.927Z,22.73
2022-12-23T19:06:58.516Z,24.95
2022-12-23T19:09:26.594Z,20.35
2022-12-23T19:11:54.993Z,19.48
2022-12-23T19:14:22.970Z,23.02
2022-12-23T19:16:52.215Z,37.50
2022-12-23T19:19:23.393Z,24.80
2022-12-23T19:21:51.262Z,37.67
2022-12-23T19:24:19.066Z,38.97
2022-12-23T19:26:46.731Z,40.25
2022-12-23T19:29:14.752Z,30.88
2022-12-23T19:31:42.455Z,40.35
2022-12-23T19:34:15.089Z,34.55
2022-12-23T19:36:43.780Z,30.70
2022-12-23T19:39:17.269Z,39.53
2022-12-23T19:41:45.714Z,29.48
2022-12-23T19:44:14.261Z,41.80
2022-12-23T19:46:42.092Z,39.08
2022-12-23T19:49:14.091Z,31.25
2022-12-23T19:51:45.262Z,24.75
2022-12-23T19:54:12.770Z,24.58
2022-12-23T19:56:40.487Z,36.83
2022-12-23T19:59:08.110Z,29.52
2022-12-23T20:01:35.834Z,28.88
2022-12-23T20:04:03.453Z,25.77
2022-12-23T20:06:34.018Z,37.65
2022-12-23T20:09:04.421Z,30.27
2022-12-23T20:11:43.749Z,30.30
2022-12-23T20:14:13.687Z,31.30
2022-12-23T20:16:42.059Z,34.35
2022-12-23T20:19:10.045Z,29.67
2022-12-23T20:21:37.783Z,28.15
2022-12-23T20:24:06.536Z,37.72
2022-12-23T20:26:35.175Z,25.92
2022-12-23T20:29:02.975Z,31.10
2022-12-23T20:31:32.689Z,28.98
2022-12-23T20:34:02.005Z,30.00
2022-12-23T20:36:31.983Z,29.73
2022-12-23T20:38:59.842Z,31.27
2022-12-23T20:41:29.306Z,31.02
2022-12-23T20:44:32.585Z,44.00
2022-12-23T20:46:45.362Z,33.22
2022-12-23T20:49:13.291Z,31.58
2022-12-23T20:51:41.012Z,21.88
2022-12-23T20:54:09.428Z,24.73
2022-12-23T20:56:37.091Z,26.38
2022-12-23T20:59:05.019Z,29.75
2022-12-23T21:01:35.807Z,28.83
2022-12-23T21:04:09.464Z,38.92
2022-12-23T21:06:37.382Z,36.75
2022-12-23T21:09:07.518Z,32.72
2022-12-23T21:11:38.278Z,33.45
2022-12-23T21:14:07.434Z,28.77
2022-12-23T21:16:37.174Z,42.00
2022-12-23T21:19:06.843Z,28.27
2022-12-23T21:21:34.523Z,25.08
2022-12-23T21:24:04.703Z,18.38
2022-12-23T21:26:34.738Z,29.92
2022-12-23T21:29:05.110Z,20.67
2022-12-23T21:31:35.400Z,36.53
2022-12-23T21:34:06.672Z,26.45
2022-12-23T21:36:37.183Z,33.80
2022-12-23T21:39:06.901Z,16.25
2022-12-23T21:41:37.844Z,24.38
2022-12-23T21:44:05.953Z,25.85
2022-12-23T21:46:34.362Z,20.00
2022-12-23T21:49:02.249Z,23.65
2022-12-23T21:51:39.599Z,21.10
2022-12-23T21:54:10.138Z,24.80
2022-12-23T21:56:39.321Z,32.97
2022-12-23T21:59:11.370Z,32.85
2022-12-23T22:01:39.356Z,25.73
2022-12-23T22:04:07.169Z,33.03
2022-12-23T22:06:38.326Z,29.65
2022-12-23T22:09:07.528Z,26.02
2022-12-23T22:11:36.908Z,27.50
2022-12-23T22:14:06.872Z,38.35
2022-12-23T22:16:35.953Z,25.38
2022-12-23T22:19:05.904Z,19.20
2022-12-23T22:21:35.055Z,25.90
2022-12-23T22:24:03.088Z,30.73
2022-12-23T22:26:32.804Z,34.42
2022-12-23T22:29:03.526Z,25.02
2022-12-23T22:31:36.748Z,23.23
2022-12-23T22:34:04.818Z,47.20
2022-12-23T22:36:32.981Z,26.88
2022-12-23T22:39:02.049Z,33.72
2022-12-23T22:41:30.608Z,27.60
2022-12-23T22:43:59.029Z,40.30
2022-12-23T22:46:27.283Z,30.50
2022-12-23T22:48:55.333Z,42.88
2022-12-23T22:51:26.756Z,29.10
2022-12-23T22:53:55.200Z,22.60
2022-12-23T22:56:24.219Z,33.03
2022-12-23T22:58:53.071Z,24.27
2022-12-23T23:01:22.672Z,27.52
2022-12-23T23:03:56.995Z,27.30
2022-12-23T23:06:29.970Z,26.92
2022-12-23T23:08:58.092Z,23.20
2022-12-23T23:11:27.507Z,24.77
2022-12-23T23:13:55.759Z,32.08
2022-12-23T23:16:24.570Z,33.03
2022-12-23T23:18:53.209Z,23.42
2022-12-23T23:21:21.832Z,26.17
2022-12-23T23:23:50.004Z,27.05
2022-12-23T23:26:19.010Z,30.30
2022-12-23T23:28:47.065Z,40.08
2022-12-23T23:31:41.116Z,28.58
2022-12-23T23:34:02.314Z,30.15
2022-12-23T23:36:30.077Z,22.40
2022-12-23T23:38:57.782Z,25.70
2022-12-23T23:41:25.430Z,20.92
2022-12-23T23:43:53.057Z,26.45
2022-12-23T23:46:20.624Z,16.00
2022-12-23T23:48:48.550Z,30.45
2022-12-23T23:51:16.112Z,25.80
2022-12-23T23:53:43.676Z,23.48
2022-12-23T23:56:11.292Z,39.00
2022-12-23T23:58:38.889Z,21.35
